createdAt,value
2024-02-29T00:00:17.647Z,100200.59
2024-02-29T00:02:21.710Z,100199.81
2024-02-29T00:04:25.784Z,100199.84
2024-02-29T00:06:29.041Z,100192.72
2024-02-29T00:08:32.240Z,100192.94
2024-02-29T00:10:34.468Z,100195.00
2024-02-29T00:12:39.896Z,100199.47
2024-02-29T00:14:45.816Z,100204.25
2024-02-29T00:16:49.135Z,100206.28
2024-02-29T00:18:52.344Z,100202.97
2024-02-29T00:20:55.534Z,100201.50
2024-02-29T00:22:58.678Z,100206.94
2024-02-29T00:25:01.782Z,100205.28
2024-02-29T00:27:05.138Z,100208.97
2024-02-29T00:29:10.725Z,100201.97
2024-02-29T00:31:14.389Z,100210.75
2024-02-29T00:33:19.676Z,100204.41
2024-02-29T00:35:24.878Z,100207.00
2024-02-29T00:37:29.633Z,100213.34
2024-02-29T00:39:32.911Z,100216.72
2024-02-29T00:41:36.139Z,100212.38
2024-02-29T00:43:39.353Z,100214.09
2024-02-29T00:45:44.092Z,100205.28
2024-02-29T00:47:47.324Z,100199.09
2024-02-29T00:49:53.113Z,100207.00
2024-02-29T00:51:56.510Z,100208.81
2024-02-29T00:53:59.759Z,100199.06
2024-02-29T00:56:02.887Z,100209.53
2024-02-29T00:58:06.458Z,100212.03
2024-02-29T01:00:13.097Z,100212.72
2024-02-29T01:02:17.958Z,100199.34
2024-02-29T01:04:21.066Z,100203.75
2024-02-29T01:06:24.273Z,100210.59
2024-02-29T01:08:27.447Z,100201.47
2024-02-29T01:10:30.708Z,100204.94
2024-02-29T01:12:40.714Z,100207.38
2024-02-29T01:14:43.957Z,100198.47
2024-02-29T01:16:46.240Z,100201.50
2024-02-29T01:18:50.954Z,100201.69
2024-02-29T01:20:54.131Z,100193.84
2024-02-29T01:22:56.316Z,100192.25
2024-02-29T01:24:59.560Z,100188.81
2024-02-29T01:27:01.747Z,100190.63
2024-02-29T01:29:05.143Z,100187.94
2024-02-29T01:31:08.492Z,100183.50
2024-02-29T01:33:11.796Z,100182.53
2024-02-29T01:35:16.787Z,100182.50
2024-02-29T01:37:20.217Z,100182.47
2024-02-29T01:39:23.643Z,100179.09
2024-02-29T01:41:27.265Z,100183.72
2024-02-29T01:43:31.529Z,100177.72
2024-02-29T01:45:34.771Z,100183.00
2024-02-29T01:47:37.180Z,100179.56
2024-02-29T01:49:40.704Z,100167.25
2024-02-29T01:51:47.518Z,100170.88
2024-02-29T01:53:51.014Z,100172.66
2024-02-29T01:55:54.261Z,100175.19
2024-02-29T01:57:57.658Z,100177.00
2024-02-29T02:00:06.043Z,100173.69
2024-02-29T02:02:12.155Z,100174.72
2024-02-29T02:04:15.404Z,100179.22
2024-02-29T02:06:18.758Z,100174.88
2024-02-29T02:08:25.015Z,100175.00
2024-02-29T02:10:28.153Z,100172.41
2024-02-29T02:12:31.515Z,100157.53
2024-02-29T02:14:33.617Z,100151.38
2024-02-29T02:16:36.870Z,100148.50
2024-02-29T02:18:40.262Z,100147.31
2024-02-29T02:20:43.833Z,100142.47
2024-02-29T02:22:47.414Z,100145.75
2024-02-29T02:24:49.384Z,100137.66
2024-02-29T02:26:52.552Z,100138.72
2024-02-29T02:28:54.950Z,100140.50
2024-02-29T02:30:58.155Z,100142.56
2024-02-29T02:33:03.575Z,100138.00
2024-02-29T02:35:08.254Z,100149.00
2024-02-29T02:37:12.070Z,100141.38
2024-02-29T02:39:15.196Z,100141.22
2024-02-29T02:41:18.250Z,100134.75
2024-02-29T02:43:20.235Z,100134.59
2024-02-29T02:45:23.455Z,100140.00
2024-02-29T02:47:26.795Z,100141.66
2024-02-29T02:49:29.810Z,100142.34
2024-02-29T02:51:32.922Z,100142.38
2024-02-29T02:53:36.659Z,100145.78
2024-02-29T02:55:39.738Z,100148.47
2024-02-29T02:57:42.871Z,100148.56
2024-02-29T02:59:44.925Z,100154.94
2024-02-29T03:01:48.079Z,100148.97
2024-02-29T03:03:50.301Z,100157.88
2024-02-29T03:05:53.379Z,100158.56
2024-02-29T03:07:56.420Z,100160.41
2024-02-29T03:10:00.866Z,100157.91
2024-02-29T03:12:04.215Z,100163.25
2024-02-29T03:14:07.340Z,100176.47
2024-02-29T03:16:12.603Z,100166.84
2024-02-29T03:18:18.441Z,100165.22
2024-02-29T03:20:21.725Z,100163.50
2024-02-29T03:22:24.851Z,100171.44
2024-02-29T03:24:26.938Z,100163.56
2024-02-29T03:26:31.401Z,100176.75
2024-02-29T03:28:34.478Z,100163.16
2024-02-29T03:30:37.549Z,100169.84
2024-02-29T03:32:39.883Z,100175.75
2024-02-29T03:34:42.965Z,100175.81
2024-02-29T03:36:46.245Z,100185.13
2024-02-29T03:38:49.439Z,100180.88
2024-02-29T03:40:53.265Z,100191.44
2024-02-29T03:42:57.738Z,100193.13
2024-02-29T03:45:00.956Z,100189.69
2024-02-29T03:47:03.165Z,100183.22
2024-02-29T03:49:06.395Z,100187.81
2024-02-29T03:51:09.804Z,100185.91
2024-02-29T03:53:12.990Z,100194.53
2024-02-29T03:55:16.478Z,100196.16
2024-02-29T03:57:19.608Z,100190.84
2024-02-29T03:59:25.221Z,100177.75
2024-02-29T04:01:28.356Z,100181.19
2024-02-29T04:03:30.882Z,100176.03
2024-02-29T04:05:33.988Z,100175.06
2024-02-29T04:07:42.928Z,100168.09
2024-02-29T04:09:46.029Z,100167.31
2024-02-29T04:11:50.444Z,100166.47
2024-02-29T04:13:54.516Z,100160.31
2024-02-29T04:15:58.990Z,100161.13
2024-02-29T04:18:02.430Z,100170.75
2024-02-29T04:20:07.022Z,100166.31
2024-02-29T04:22:10.122Z,100167.19
2024-02-29T04:24:13.182Z,100154.94
2024-02-29T04:26:16.409Z,100158.44
2024-02-29T04:28:19.531Z,100167.22
2024-02-29T04:30:22.573Z,100158.94
2024-02-29T04:32:26.919Z,100159.00
2024-02-29T04:34:29.080Z,100158.00
2024-02-29T04:36:32.907Z,100166.81
2024-02-29T04:38:35.993Z,100160.72
2024-02-29T04:40:38.505Z,100159.00
2024-02-29T04:42:42.408Z,100150.19
2024-02-29T04:44:45.918Z,100154.47
2024-02-29T04:46:48.970Z,100151.81
2024-02-29T04:48:53.567Z,100141.28
2024-02-29T04:50:57.250Z,100146.50
2024-02-29T04:52:59.348Z,100148.22
2024-02-29T04:55:02.585Z,100148.13
2024-02-29T04:57:07.829Z,100149.59
2024-02-29T04:59:11.355Z,100153.09
2024-02-29T05:01:14.881Z,100148.53
2024-02-29T05:03:18.076Z,100152.94
2024-02-29T05:05:22.010Z,100145.19
2024-02-29T05:07:25.083Z,100145.44
2024-02-29T05:09:28.156Z,100139.38
2024-02-29T05:11:31.404Z,100136.72
2024-02-29T05:13:34.486Z,100143.72
2024-02-29T05:15:37.615Z,100148.09
2024-02-29T05:17:40.862Z,100144.69
2024-02-29T05:19:42.985Z,100143.91
2024-02-29T05:21:48.370Z,100141.28
2024-02-29T05:23:51.591Z,100137.75
2024-02-29T05:25:54.760Z,100134.28
2024-02-29T05:27:57.773Z,100142.03
2024-02-29T05:30:02.520Z,100137.69
2024-02-29T05:32:06.061Z,100135.84
2024-02-29T05:34:09.651Z,100144.50
2024-02-29T05:36:15.419Z,100144.47
2024-02-29T05:38:20.127Z,100152.69
2024-02-29T05:40:23.331Z,100144.91
2024-02-29T05:42:29.426Z,100147.44
2024-02-29T05:44:32.680Z,100141.34
2024-02-29T05:46:35.893Z,100139.75
2024-02-29T05:48:39.217Z,100149.44
2024-02-29T05:50:42.371Z,100148.66
2024-02-29T05:52:45.419Z,100150.47
2024-02-29T05:54:50.622Z,100161.03
2024-02-29T05:56:53.810Z,100158.31
2024-02-29T05:58:56.861Z,100158.38
2024-02-29T06:01:00.281Z,100154.91
2024-02-29T06:03:03.667Z,100154.03
2024-02-29T06:05:07.272Z,100158.41
2024-02-29T06:07:10.781Z,100151.34
2024-02-29T06:09:15.978Z,100155.72
2024-02-29T06:11:20.730Z,100153.91
2024-02-29T06:13:23.842Z,100152.97
2024-02-29T06:15:25.828Z,100164.19
2024-02-29T06:17:29.008Z,100163.09
2024-02-29T06:19:32.131Z,100158.72
2024-02-29T06:21:35.166Z,100159.59
2024-02-29T06:23:37.931Z,100157.81
2024-02-29T06:25:41.364Z,100157.94
2024-02-29T06:27:46.057Z,100167.84
2024-02-29T06:29:49.223Z,100167.06
2024-02-29T06:31:52.643Z,100169.75
2024-02-29T06:33:55.889Z,100167.06
2024-02-29T06:35:59.127Z,100159.91
2024-02-29T06:38:01.233Z,100164.19
2024-02-29T06:40:09.215Z,100151.81
2024-02-29T06:42:12.120Z,100151.69
2024-02-29T06:44:17.720Z,100155.97
2024-02-29T06:46:20.765Z,100154.00
2024-02-29T06:48:23.822Z,100153.63
2024-02-29T06:50:25.874Z,100151.56
2024-02-29T06:52:29.128Z,100153.38
2024-02-29T06:54:32.228Z,100146.47
2024-02-29T06:56:35.356Z,100157.03
2024-02-29T06:58:38.624Z,100155.75
2024-02-29T07:00:43.286Z,100146.59
2024-02-29T07:02:46.474Z,100146.44
2024-02-29T07:04:49.548Z,100140.16
2024-02-29T07:06:52.719Z,100140.88
2024-02-29T07:08:55.844Z,100139.88
2024-02-29T07:11:02.075Z,100136.16
2024-02-29T07:13:05.893Z,100137.75
2024-02-29T07:15:09.255Z,100141.41
2024-02-29T07:17:15.779Z,100143.88
2024-02-29T07:19:20.016Z,100144.59
2024-02-29T07:21:23.084Z,100140.09
2024-02-29T07:23:26.297Z,100134.88
2024-02-29T07:25:29.416Z,100142.81
2024-02-29T07:27:34.493Z,100141.75
2024-02-29T07:29:37.579Z,100130.25
2024-02-29T07:31:43.312Z,100125.69
2024-02-29T07:33:47.993Z,100129.13
2024-02-29T07:35:51.192Z,100140.22
2024-02-29T07:37:55.163Z,100133.03
2024-02-29T07:40:00.417Z,100130.31
2024-02-29T07:42:04.087Z,100134.81
2024-02-29T07:44:07.542Z,100132.22
2024-02-29T07:46:10.729Z,100134.31
2024-02-29T07:48:14.475Z,100133.00
2024-02-29T07:50:19.575Z,100121.91
2024-02-29T07:52:22.744Z,100128.06
2024-02-29T07:54:26.076Z,100126.09
2024-02-29T07:56:30.454Z,100125.16
2024-02-29T07:58:33.698Z,100131.84
2024-02-29T08:00:39.102Z,100126.78
2024-02-29T08:02:44.646Z,100126.69
2024-02-29T08:04:46.895Z,100119.66
2024-02-29T08:06:51.333Z,100115.78
2024-02-29T08:08:54.450Z,100118.94
2024-02-29T08:10:56.479Z,100117.50
2024-02-29T08:12:59.624Z,100118.44
2024-02-29T08:15:02.638Z,100118.97
2024-02-29T08:17:06.100Z,100122.06
2024-02-29T08:19:09.333Z,100117.25
2024-02-29T08:21:11.480Z,100118.78
2024-02-29T08:23:16.887Z,100116.03
2024-02-29T08:25:19.967Z,100115.47
2024-02-29T08:27:23.181Z,100110.78
2024-02-29T08:29:25.223Z,100119.72
2024-02-29T08:31:28.570Z,100119.44
2024-02-29T08:33:31.728Z,100119.00
2024-02-29T08:35:34.950Z,100114.63
2024-02-29T08:37:38.152Z,100125.88
2024-02-29T08:39:42.810Z,100127.50
2024-02-29T08:41:45.716Z,100114.75
2024-02-29T08:43:50.787Z,100117.06
2024-02-29T08:45:54.345Z,100110.00
2024-02-29T08:47:57.450Z,100099.91
2024-02-29T08:50:00.572Z,100094.91
2024-02-29T08:52:03.748Z,100108.06
2024-02-29T08:54:09.057Z,100097.03
2024-02-29T08:56:16.929Z,100108.06
2024-02-29T08:58:20.095Z,100100.13
2024-02-29T09:00:23.390Z,100093.69
2024-02-29T09:02:25.468Z,100093.06
2024-02-29T09:04:28.554Z,100093.59
2024-02-29T09:06:40.859Z,100094.94
2024-02-29T09:08:44.927Z,100099.09
2024-02-29T09:10:47.970Z,100102.53
2024-02-29T09:12:52.627Z,100101.84
2024-02-29T09:14:55.723Z,100097.72
2024-02-29T09:16:58.915Z,100095.06
2024-02-29T09:19:04.072Z,100094.25
2024-02-29T09:21:06.548Z,100099.53
2024-02-29T09:23:09.602Z,100091.31
2024-02-29T09:25:12.959Z,100092.13
2024-02-29T09:27:18.240Z,100091.91
2024-02-29T09:29:25.659Z,100088.28
2024-02-29T09:31:29.918Z,100079.66
2024-02-29T09:33:35.052Z,100075.94
2024-02-29T09:35:38.057Z,100082.47
2024-02-29T09:37:41.103Z,100073.81
2024-02-29T09:39:44.267Z,100076.75
2024-02-29T09:42:08.016Z,100064.41
2024-02-29T09:44:11.752Z,100066.72
2024-02-29T09:46:16.264Z,100075.09
2024-02-29T09:48:19.709Z,100079.84
2024-02-29T09:50:22.876Z,100069.91
2024-02-29T09:52:26.796Z,100071.22
2024-02-29T09:54:34.731Z,100069.63
2024-02-29T09:56:37.986Z,100074.06
2024-02-29T09:58:42.125Z,100077.59
2024-02-29T10:00:45.339Z,100075.88
2024-02-29T10:02:54.542Z,100078.00
2024-02-29T10:04:58.971Z,100078.72
2024-02-29T10:07:02.039Z,100073.59
2024-02-29T10:09:05.461Z,100071.97
2024-02-29T10:11:09.706Z,100074.56
2024-02-29T10:13:12.863Z,100074.34
2024-02-29T10:15:17.111Z,100066.06
2024-02-29T10:17:20.199Z,100062.91
2024-02-29T10:19:25.900Z,100060.88
2024-02-29T10:21:29.140Z,100062.75
2024-02-29T10:23:34.712Z,100062.28
2024-02-29T10:25:38.975Z,100058.34
2024-02-29T10:27:43.202Z,100058.78
2024-02-29T10:29:46.317Z,100063.00
2024-02-29T10:31:49.453Z,100053.31
2024-02-29T10:33:52.662Z,100054.69
2024-02-29T10:35:58.311Z,100052.28
2024-02-29T10:38:00.475Z,100045.69
2024-02-29T10:40:08.512Z,100041.75
2024-02-29T10:42:12.554Z,100045.28
2024-02-29T10:44:17.353Z,100038.53
2024-02-29T10:46:21.818Z,100036.75
2024-02-29T10:48:31.200Z,100039.41
2024-02-29T10:50:41.688Z,100036.72
2024-02-29T10:52:51.104Z,100029.88
2024-02-29T10:54:59.979Z,100031.69
2024-02-29T10:57:06.731Z,100025.53
2024-02-29T10:59:10.022Z,100025.97
2024-02-29T11:01:14.131Z,100028.47
2024-02-29T11:03:22.150Z,100022.28
2024-02-29T11:05:27.184Z,100019.91
2024-02-29T11:07:30.473Z,100016.47
2024-02-29T11:09:35.238Z,100022.16
2024-02-29T11:11:39.464Z,100020.88
2024-02-29T11:13:42.998Z,100019.91
2024-02-29T11:15:45.263Z,100025.31
2024-02-29T11:17:50.029Z,100013.88
2024-02-29T11:19:59.204Z,100011.19
2024-02-29T11:22:12.130Z,100018.56
2024-02-29T11:24:19.622Z,100016.03
2024-02-29T11:26:29.441Z,100012.94
2024-02-29T11:28:34.237Z,100020.13
2024-02-29T11:30:36.325Z,100009.72
2024-02-29T11:32:39.438Z,100018.47
2024-02-29T11:34:42.612Z,100005.53
2024-02-29T11:36:46.890Z,100006.16
2024-02-29T11:38:51.141Z,100001.66
2024-02-29T11:40:54.239Z,99999.34
2024-02-29T11:43:00.822Z,100000.03
2024-02-29T11:45:04.732Z,100005.16
2024-02-29T11:47:08.204Z,99994.31
2024-02-29T11:49:14.865Z,99999.50
2024-02-29T11:51:18.261Z,99999.31
2024-02-29T11:53:31.304Z,99985.28
2024-02-29T11:55:35.607Z,99988.91
2024-02-29T11:57:38.719Z,99986.06
2024-02-29T11:59:42.243Z,99981.13
2024-02-29T12:01:48.863Z,99984.41
2024-02-29T12:03:51.555Z,99976.81
2024-02-29T12:05:55.000Z,99965.84
2024-02-29T12:07:58.094Z,99966.44
2024-02-29T12:10:05.484Z,99966.75
2024-02-29T12:12:09.083Z,99966.44
2024-02-29T12:14:13.043Z,99964.44
2024-02-29T12:16:19.736Z,99955.88
2024-02-29T12:18:23.219Z,99954.53
2024-02-29T12:20:27.725Z,99946.53
2024-02-29T12:22:30.718Z,99951.50
2024-02-29T12:24:34.632Z,99951.63
2024-02-29T12:26:39.505Z,99936.44
2024-02-29T12:28:42.033Z,99932.00
2024-02-29T12:30:50.048Z,99937.19
2024-02-29T12:32:53.878Z,99937.38
2024-02-29T12:34:58.430Z,99937.09
2024-02-29T12:37:02.798Z,99929.28
2024-02-29T12:39:05.968Z,99925.72
2024-02-29T12:41:09.250Z,99927.03
2024-02-29T12:43:17.507Z,99924.94
2024-02-29T12:45:20.962Z,99924.59
2024-02-29T12:47:24.405Z,99917.22
2024-02-29T12:49:28.888Z,99924.19
2024-02-29T12:51:31.001Z,99916.22
2024-02-29T12:53:34.900Z,99911.94
2024-02-29T12:55:38.007Z,99910.28
2024-02-29T12:57:41.219Z,99919.75
2024-02-29T12:59:44.306Z,99911.72
2024-02-29T13:01:46.598Z,99909.06
2024-02-29T13:03:50.088Z,99904.06
2024-02-29T13:05:54.657Z,99896.66
2024-02-29T13:07:57.857Z,99895.25
2024-02-29T13:10:00.948Z,99900.50
2024-02-29T13:12:04.437Z,99891.69
2024-02-29T13:14:06.510Z,99886.78
2024-02-29T13:16:09.591Z,99883.69
2024-02-29T13:18:12.667Z,99881.41
2024-02-29T13:20:16.153Z,99881.22
2024-02-29T13:22:20.759Z,99878.72
2024-02-29T13:24:23.829Z,99878.28
2024-02-29T13:26:26.920Z,99881.31
2024-02-29T13:28:29.972Z,99873.72
2024-02-29T13:30:33.198Z,99876.78
2024-02-29T13:32:36.287Z,99872.47
2024-02-29T13:34:40.012Z,99870.22
2024-02-29T13:36:42.136Z,99881.03
2024-02-29T13:38:47.708Z,99872.78
2024-02-29T13:40:50.705Z,99873.00
2024-02-29T13:42:53.769Z,99885.31
2024-02-29T13:44:56.837Z,99862.97
2024-02-29T13:47:00.109Z,99874.66
2024-02-29T13:49:20.836Z,99864.00
2024-02-29T13:51:26.780Z,99860.59
2024-02-29T13:53:31.888Z,99865.28
2024-02-29T13:55:36.513Z,99859.53
2024-02-29T13:57:39.674Z,99854.91
2024-02-29T13:59:43.556Z,99860.31
2024-02-29T14:01:47.054Z,99846.03
2024-02-29T14:03:50.160Z,99852.09
2024-02-29T14:05:53.529Z,99852.34
2024-02-29T14:07:56.711Z,99846.75
2024-02-29T14:09:59.844Z,99849.53
2024-02-29T14:12:04.728Z,99843.09
2024-02-29T14:14:07.846Z,99839.66
2024-02-29T14:16:12.651Z,99837.13
2024-02-29T14:18:15.812Z,99840.22
2024-02-29T14:20:19.144Z,99838.28
2024-02-29T14:22:21.294Z,99837.34
2024-02-29T14:24:24.262Z,99838.09
2024-02-29T14:26:27.486Z,99835.22
2024-02-29T14:28:31.902Z,99827.66
2024-02-29T14:30:36.996Z,99829.84
2024-02-29T14:32:40.283Z,99831.94
2024-02-29T14:34:45.558Z,99829.84
2024-02-29T14:36:48.738Z,99812.31
2024-02-29T14:38:52.260Z,99820.84
2024-02-29T14:40:55.254Z,99822.19
2024-02-29T14:42:58.452Z,99814.31
2024-02-29T14:45:02.898Z,99818.00
2024-02-29T14:47:06.362Z,99809.84
2024-02-29T14:49:09.523Z,99823.91
2024-02-29T14:51:14.482Z,99819.19
2024-02-29T14:53:17.664Z,99812.94
2024-02-29T14:55:20.764Z,99809.50
2024-02-29T14:57:23.199Z,99807.78
2024-02-29T14:59:26.254Z,99806.13
2024-02-29T15:01:30.773Z,99805.56
2024-02-29T15:03:33.894Z,99803.66
2024-02-29T15:05:37.376Z,99807.31
2024-02-29T15:07:43.135Z,99802.13
2024-02-29T15:09:46.353Z,99795.28
2024-02-29T15:11:48.597Z,99787.59
2024-02-29T15:13:51.719Z,99786.47
2024-02-29T15:15:54.035Z,99790.44
2024-02-29T15:17:58.972Z,99786.16
2024-02-29T15:20:01.741Z,99781.19
2024-02-29T15:22:05.304Z,99777.72
2024-02-29T15:24:09.117Z,99772.88
2024-02-29T15:26:12.081Z,99775.13
2024-02-29T15:28:16.595Z,99772.63
2024-02-29T15:30:19.740Z,99776.72
2024-02-29T15:32:23.802Z,99766.31
2024-02-29T15:34:28.380Z,99768.63
2024-02-29T15:36:31.832Z,99772.47
2024-02-29T15:38:35.030Z,99760.44
2024-02-29T15:40:38.113Z,99766.34
2024-02-29T15:42:41.408Z,99760.13
2024-02-29T15:44:44.500Z,99761.31
2024-02-29T15:46:47.837Z,99758.25
2024-02-29T15:48:50.886Z,99762.34
2024-02-29T15:50:54.347Z,99760.06
2024-02-29T15:52:57.393Z,99757.88
2024-02-29T15:55:02.315Z,99756.25
2024-02-29T15:57:09.702Z,99750.78
2024-02-29T15:59:14.878Z,99755.91
2024-02-29T16:01:18.044Z,99752.25
2024-02-29T16:03:22.447Z,99752.63
2024-02-29T16:05:28.301Z,99753.72
2024-02-29T16:07:32.801Z,99754.78
2024-02-29T16:09:35.969Z,99750.59
2024-02-29T16:11:39.269Z,99753.72
2024-02-29T16:13:42.743Z,99751.34
2024-02-29T16:15:50.218Z,99747.91
2024-02-29T16:17:53.739Z,99745.94
2024-02-29T16:19:57.324Z,99745.66
2024-02-29T16:22:00.904Z,99749.03
2024-02-29T16:24:06.847Z,99742.66
2024-02-29T16:26:09.962Z,99746.34
2024-02-29T16:28:12.205Z,99742.91
2024-02-29T16:30:15.591Z,99747.00
2024-02-29T16:32:21.241Z,99748.25
2024-02-29T16:34:24.504Z,99742.25
2024-02-29T16:36:27.520Z,99741.69
2024-02-29T16:38:30.816Z,99740.97
2024-02-29T16:40:37.418Z,99739.88
2024-02-29T16:42:40.738Z,99737.28
2024-02-29T16:44:44.680Z,99734.13
2024-02-29T16:46:47.773Z,99736.16
2024-02-29T16:48:51.280Z,99728.25
2024-02-29T16:50:54.654Z,99737.13
2024-02-29T16:52:57.878Z,99735.41
2024-02-29T16:55:00.960Z,99742.56
2024-02-29T16:57:06.079Z,99739.66
2024-02-29T16:59:09.069Z,99734.72
2024-02-29T17:01:12.247Z,99727.88
2024-02-29T17:03:15.326Z,99734.34
2024-02-29T17:05:18.361Z,99727.41
2024-02-29T17:07:21.628Z,99730.09
2024-02-29T17:09:24.784Z,99725.41
2024-02-29T17:11:27.882Z,99721.00
2024-02-29T17:13:32.432Z,99717.78
2024-02-29T17:15:38.329Z,99718.66
2024-02-29T17:17:40.819Z,99719.53
2024-02-29T17:19:43.904Z,99708.28
2024-02-29T17:21:48.230Z,99716.19
2024-02-29T17:23:51.238Z,99706.81
2024-02-29T17:25:54.390Z,99709.56
2024-02-29T17:27:57.769Z,99705.09
2024-02-29T17:30:01.298Z,99709.88
2024-02-29T17:32:04.532Z,99701.50
2024-02-29T17:34:09.522Z,99703.63
2024-02-29T17:36:13.952Z,99703.91
2024-02-29T17:38:17.740Z,99696.47
2024-02-29T17:40:21.114Z,99698.97
2024-02-29T17:42:28.252Z,99700.72
2024-02-29T17:44:31.290Z,99699.66
2024-02-29T17:46:35.914Z,99695.25
2024-02-29T17:48:39.293Z,99693.81
2024-02-29T17:50:42.356Z,99693.66
2024-02-29T17:52:45.561Z,99691.44
2024-02-29T17:54:48.621Z,99695.38
2024-02-29T17:56:53.271Z,99693.28
2024-02-29T17:58:56.432Z,99694.22
2024-02-29T18:01:01.202Z,99689.94
2024-02-29T18:03:06.088Z,99686.47
2024-02-29T18:05:09.055Z,99690.38
2024-02-29T18:07:14.832Z,99687.03
2024-02-29T18:09:18.092Z,99687.78
2024-02-29T18:11:21.193Z,99692.63
2024-02-29T18:13:24.263Z,99690.88
2024-02-29T18:15:26.402Z,99696.22
2024-02-29T18:17:30.125Z,99693.72
2024-02-29T18:19:33.780Z,99691.50
2024-02-29T18:21:44.056Z,99687.94
2024-02-29T18:23:47.229Z,99687.81
2024-02-29T18:25:52.762Z,99689.78
2024-02-29T18:27:55.948Z,99687.13
2024-02-29T18:29:58.144Z,99679.06
2024-02-29T18:32:01.208Z,99683.47
2024-02-29T18:34:04.429Z,99680.50
2024-02-29T18:36:10.035Z,99683.22
2024-02-29T18:38:13.126Z,99680.50
2024-02-29T18:40:16.852Z,99683.56
2024-02-29T18:42:20.266Z,99679.25
2024-02-29T18:44:25.446Z,99674.53
2024-02-29T18:46:35.893Z,99665.41
2024-02-29T18:48:39.047Z,99665.31
2024-02-29T18:50:42.496Z,99668.84
2024-02-29T18:52:46.967Z,99661.59
2024-02-29T18:54:50.119Z,99661.59
2024-02-29T18:56:53.127Z,99663.41
2024-02-29T18:58:57.956Z,99665.31
2024-02-29T19:01:01.531Z,99662.47
2024-02-29T19:03:05.165Z,99664.72
2024-02-29T19:05:09.010Z,99656.75
2024-02-29T19:07:12.450Z,99659.47
2024-02-29T19:09:16.838Z,99663.06
2024-02-29T19:11:20.130Z,99666.25
2024-02-29T19:13:24.579Z,99663.34
2024-02-29T19:15:29.863Z,99662.72
2024-02-29T19:17:32.841Z,99659.47
2024-02-29T19:19:36.006Z,99660.41
2024-02-29T19:21:39.260Z,99655.13
2024-02-29T19:23:42.288Z,99662.94
2024-02-29T19:25:47.140Z,99657.78
2024-02-29T19:27:50.218Z,99652.66
2024-02-29T19:29:53.562Z,99661.88
2024-02-29T19:31:56.769Z,99660.31
2024-02-29T19:33:59.827Z,99661.00
2024-02-29T19:36:02.966Z,99664.03
2024-02-29T19:38:06.043Z,99659.66
2024-02-29T19:40:10.608Z,99651.00
2024-02-29T19:42:16.142Z,99651.94
2024-02-29T19:44:19.319Z,99657.72
2024-02-29T19:46:23.485Z,99655.63
2024-02-29T19:48:26.588Z,99657.47
2024-02-29T19:50:30.324Z,99667.06
2024-02-29T19:52:36.224Z,99661.19
2024-02-29T19:54:39.467Z,99663.66
2024-02-29T19:56:42.578Z,99661.13
2024-02-29T19:58:47.071Z,99670.59
2024-02-29T20:00:50.423Z,99668.19
2024-02-29T20:02:53.560Z,99665.00
2024-02-29T20:04:56.687Z,99668.28
2024-02-29T20:06:59.772Z,99673.03
2024-02-29T20:09:02.982Z,99678.31
2024-02-29T20:11:06.331Z,99669.66
2024-02-29T20:13:08.414Z,99670.50
2024-02-29T20:15:16.017Z,99664.84
2024-02-29T20:17:18.458Z,99664.75
2024-02-29T20:19:21.528Z,99658.38
2024-02-29T20:21:24.712Z,99649.06
2024-02-29T20:23:27.840Z,99658.91
2024-02-29T20:25:31.296Z,99657.63
2024-02-29T20:27:36.763Z,99651.22
2024-02-29T20:29:42.518Z,99650.59
2024-02-29T20:31:48.050Z,99645.75
2024-02-29T20:33:51.549Z,99647.72
2024-02-29T20:35:54.671Z,99651.25
2024-02-29T20:37:57.830Z,99651.75
2024-02-29T20:40:01.536Z,99639.56
2024-02-29T20:42:05.084Z,99639.03
2024-02-29T20:44:08.631Z,99638.41
2024-02-29T20:46:17.541Z,99643.94
2024-02-29T20:48:22.112Z,99636.09
2024-02-29T20:50:24.210Z,99634.13
2024-02-29T20:52:27.681Z,99630.31
2024-02-29T20:54:30.843Z,99632.22
2024-02-29T20:56:35.937Z,99630.84
2024-02-29T20:58:39.021Z,99631.16
2024-02-29T21:00:42.044Z,99628.88
2024-02-29T21:02:44.150Z,99621.09
2024-02-29T21:04:49.980Z,99620.81
2024-02-29T21:06:54.869Z,99615.81
2024-02-29T21:08:57.969Z,99613.53
2024-02-29T21:11:01.680Z,99621.63
2024-02-29T21:13:05.180Z,99613.78
2024-02-29T21:15:10.965Z,99615.28
2024-02-29T21:17:15.249Z,99607.00
2024-02-29T21:19:19.107Z,99603.88
2024-02-29T21:21:23.697Z,99606.53
2024-02-29T21:23:26.694Z,99597.69
2024-02-29T21:25:30.400Z,99601.16
2024-02-29T21:27:32.736Z,99601.00
2024-02-29T21:29:36.360Z,99597.94
2024-02-29T21:31:40.096Z,99596.66
2024-02-29T21:33:43.290Z,99599.38
2024-02-29T21:35:47.765Z,99592.34
2024-02-29T21:37:52.054Z,99577.41
2024-02-29T21:39:56.795Z,99572.28
2024-02-29T21:41:59.873Z,99559.22
2024-02-29T21:44:03.515Z,99555.78
2024-02-29T21:46:06.900Z,99552.88
2024-02-29T21:48:10.000Z,99553.00
2024-02-29T21:50:13.260Z,99547.88
2024-02-29T21:52:16.327Z,99546.13
2024-02-29T21:54:23.033Z,99531.06
2024-02-29T21:56:25.203Z,99522.63
2024-02-29T21:58:29.860Z,99529.47
2024-02-29T22:00:32.950Z,99526.41
2024-02-29T22:02:35.980Z,99527.88
2024-02-29T22:04:38.162Z,99526.22
2024-02-29T22:06:41.194Z,99513.38
2024-02-29T22:08:44.394Z,99496.56
2024-02-29T22:10:48.966Z,99504.91
2024-02-29T22:12:52.220Z,99512.75
2024-02-29T22:14:55.357Z,99504.97
2024-02-29T22:16:58.411Z,99499.47
2024-02-29T22:19:00.406Z,99503.09
2024-02-29T22:21:03.741Z,99508.53
2024-02-29T22:23:06.785Z,99513.66
2024-02-29T22:25:10.243Z,99510.50
2024-02-29T22:27:14.622Z,99517.09
2024-02-29T22:29:17.798Z,99511.53
2024-02-29T22:31:21.079Z,99521.16
2024-02-29T22:33:24.668Z,99520.56
2024-02-29T22:39:04.045Z,99521.84
2024-02-29T22:41:11.061Z,99511.06
2024-02-29T22:43:21.640Z,99514.03
2024-02-29T22:45:31.120Z,99513.16
2024-02-29T22:47:34.212Z,99512.97
2024-02-29T22:49:37.322Z,99509.97
2024-02-29T22:51:42.410Z,99498.69
2024-02-29T22:53:45.528Z,99490.81
2024-02-29T22:55:51.300Z,99482.28
2024-02-29T22:59:01.831Z,99475.75
2024-02-29T23:01:06.358Z,99479.72
2024-02-29T23:03:08.786Z,99473.75
2024-02-29T23:05:13.842Z,99460.09
2024-02-29T23:07:16.929Z,99454.78
2024-02-29T23:09:20.045Z,99460.41
2024-02-29T23:11:23.148Z,99448.41
2024-02-29T23:13:26.577Z,99445.69
2024-02-29T23:15:29.971Z,99449.16
2024-02-29T23:17:33.944Z,99436.06
2024-02-29T23:19:37.253Z,99439.91
2024-02-29T23:21:40.286Z,99440.94
2024-02-29T23:23:47.297Z,99434.09
2024-02-29T23:25:50.956Z,99448.25
2024-02-29T23:27:54.338Z,99444.06
2024-02-29T23:29:57.686Z,99433.84
2024-02-29T23:32:00.757Z,99427.38
2024-02-29T23:34:09.271Z,99433.53
2024-02-29T23:36:14.875Z,99423.06
2024-02-29T23:38:17.825Z,99422.47
2024-02-29T23:40:23.313Z,99428.09
2024-02-29T23:42:26.659Z,99424.31
2024-02-29T23:44:30.124Z,99419.66
2024-02-29T23:46:33.290Z,99425.88
2024-02-29T23:48:36.680Z,99421.78
2024-02-29T23:50:41.310Z,99408.84
2024-02-29T23:52:49.519Z,99416.84
2024-02-29T23:54:52.721Z,99415.44
2024-02-29T23:56:56.065Z,99420.53
2024-02-29T23:58:59.220Z,99415.94
